createdAt,value
2022-10-15T00:00:14.665Z,9.27
2022-10-15T00:02:41.139Z,10.15
2022-10-15T00:05:08.070Z,9.82
2022-10-15T00:07:34.565Z,14.75
2022-10-15T00:10:01.136Z,9.75
2022-10-15T00:12:28.181Z,9.70
2022-10-15T00:14:54.754Z,10.65
2022-10-15T00:17:21.579Z,8.20
2022-10-15T00:19:48.331Z,10.80
2022-10-15T00:22:14.868Z,9.20
2022-10-15T00:24:41.602Z,11.52
2022-10-15T00:27:08.153Z,10.43
2022-10-15T00:29:34.692Z,7.57
2022-10-15T00:32:01.158Z,7.65
2022-10-15T00:34:27.717Z,9.32
2022-10-15T00:36:54.208Z,7.65
2022-10-15T00:39:20.699Z,9.05
2022-10-15T00:41:47.293Z,11.68
2022-10-15T00:44:25.833Z,7.80
2022-10-15T00:46:57.091Z,8.73
2022-10-15T00:49:35.866Z,7.55
2022-10-15T00:52:07.101Z,7.88
2022-10-15T00:54:40.213Z,7.20
2022-10-15T00:57:08.159Z,6.38
2022-10-15T00:59:39.300Z,7.20
2022-10-15T01:02:07.944Z,6.65
2022-10-15T01:04:35.714Z,6.40
2022-10-15T01:07:02.270Z,6.80
2022-10-15T01:09:28.829Z,6.50
2022-10-15T01:11:56.378Z,7.73
2022-10-15T01:17:26.948Z,6.85
2022-10-15T01:20:12.154Z,4.90
2022-10-15T01:23:03.878Z,4.80
2022-10-15T01:26:15.179Z,4.85
2022-10-15T01:29:09.606Z,6.40
2022-10-15T01:32:00.601Z,8.35
2022-10-15T01:34:51.493Z,5.25
2022-10-15T01:45:03.383Z,4.90
2022-10-15T01:47:36.306Z,5.60
2022-10-15T01:55:04.752Z,4.25
2022-10-15T01:57:34.604Z,4.50
2022-10-15T02:00:02.856Z,6.30
2022-10-15T02:07:47.769Z,4.10
2022-10-15T02:10:27.725Z,4.55
2022-10-15T02:13:02.152Z,6.57
2022-10-15T02:15:56.355Z,3.65
2022-10-15T02:18:48.740Z,2.63
2022-10-15T02:21:25.890Z,2.70
2022-10-15T02:24:13.524Z,2.28
2022-10-15T02:26:41.449Z,3.10
2022-10-15T02:29:12.673Z,3.40
2022-10-15T02:31:43.641Z,3.22
2022-10-15T02:34:15.530Z,2.75
2022-10-15T02:36:42.818Z,3.33
2022-10-15T02:39:17.533Z,2.35
2022-10-15T02:41:44.170Z,3.47
2022-10-15T02:44:10.707Z,4.97
2022-10-15T02:46:37.247Z,3.00
2022-10-15T02:49:03.931Z,4.73
2022-10-15T02:51:34.591Z,3.78
2022-10-15T02:54:02.595Z,2.92
2022-10-15T03:01:23.359Z,3.45
2022-10-15T03:03:51.012Z,3.38
2022-10-15T03:06:17.541Z,3.22
2022-10-15T03:08:44.462Z,2.88
2022-10-15T03:11:11.907Z,4.32
2022-10-15T03:13:39.589Z,3.03
2022-10-15T03:16:07.329Z,2.42
2022-10-15T03:18:36.807Z,2.85
2022-10-15T03:21:06.431Z,2.95
2022-10-15T03:26:00.380Z,2.03
2022-10-15T03:28:26.927Z,2.08
2022-10-15T03:30:53.579Z,3.38
2022-10-15T03:33:23.062Z,5.60
2022-10-15T03:35:52.691Z,3.97
2022-10-15T03:38:19.351Z,3.33
2022-10-15T03:40:46.506Z,2.70
2022-10-15T03:43:12.954Z,4.43
2022-10-15T03:45:39.489Z,2.75
2022-10-15T03:48:08.738Z,2.40
2022-10-15T03:50:35.415Z,3.28
2022-10-15T03:53:05.627Z,4.18
2022-10-15T03:55:33.045Z,3.55
2022-10-15T03:57:59.739Z,3.92
2022-10-15T04:00:26.389Z,2.80
2022-10-15T04:02:52.828Z,3.05
2022-10-15T04:05:19.349Z,2.53
2022-10-15T04:07:45.859Z,2.83
2022-10-15T04:10:12.397Z,4.47
2022-10-15T04:12:38.867Z,2.72
2022-10-15T04:15:05.913Z,3.28
2022-10-15T04:19:58.790Z,4.00
2022-10-15T04:22:25.670Z,2.13
2022-10-15T04:24:52.366Z,3.53
2022-10-15T04:27:18.834Z,2.40
2022-10-15T04:29:47.862Z,4.53
2022-10-15T04:32:15.318Z,2.00
2022-10-15T04:37:08.204Z,2.33
2022-10-15T04:39:34.718Z,1.70
2022-10-15T04:44:28.033Z,2.85
2022-10-15T04:46:54.537Z,3.05
2022-10-15T04:49:21.072Z,2.00
2022-10-15T04:51:47.555Z,2.70
2022-10-15T04:54:14.250Z,2.17
2022-10-15T04:56:40.765Z,1.85
2022-10-15T04:59:08.638Z,2.00
2022-10-15T05:01:35.650Z,2.15
2022-10-15T05:04:02.167Z,2.00
2022-10-15T05:06:28.723Z,2.10
2022-10-15T05:08:55.228Z,2.60
2022-10-15T05:11:24.151Z,1.95
2022-10-15T05:13:51.294Z,3.00
2022-10-15T05:16:24.225Z,1.88
2022-10-15T05:18:55.269Z,1.75
2022-10-15T05:21:22.198Z,1.60
2022-10-15T05:23:50.211Z,3.38
2022-10-15T05:26:22.628Z,2.80
2022-10-15T05:28:50.261Z,2.33
2022-10-15T05:31:22.363Z,1.90
2022-10-15T05:36:29.722Z,1.60
2022-10-15T05:38:59.174Z,1.70
2022-10-15T05:41:26.705Z,1.38
2022-10-15T05:43:55.687Z,1.60
2022-10-15T05:46:22.999Z,1.50
2022-10-15T05:48:53.683Z,2.47
2022-10-15T05:51:20.593Z,3.75
2022-10-15T05:53:51.983Z,1.63
2022-10-15T05:56:18.501Z,1.50
2022-10-15T05:58:44.961Z,1.40
2022-10-15T06:01:12.972Z,3.38
2022-10-15T06:03:41.477Z,1.67
2022-10-15T06:06:19.905Z,2.10
2022-10-15T06:08:46.939Z,2.63
2022-10-15T06:11:13.728Z,1.73
2022-10-15T06:13:41.851Z,2.83
2022-10-15T06:16:09.872Z,3.00
2022-10-15T06:18:38.541Z,1.92
2022-10-15T06:21:08.611Z,1.98
2022-10-15T06:26:03.716Z,1.73
2022-10-15T06:28:30.526Z,2.42
2022-10-15T06:30:59.808Z,2.42
2022-10-15T06:33:27.499Z,2.03
2022-10-15T06:35:54.389Z,3.03
2022-10-15T06:38:20.875Z,1.42
2022-10-15T07:52:08.630Z,2.80
2022-10-15T07:54:36.689Z,1.07
2022-10-15T07:57:03.781Z,1.33
2022-10-15T07:59:30.268Z,2.10
2022-10-15T08:02:02.127Z,2.95
2022-10-15T08:04:28.741Z,1.13
2022-10-15T08:06:55.269Z,0.70
2022-10-15T08:09:27.893Z,1.10
2022-10-15T08:11:54.417Z,1.90
2022-10-15T08:14:20.919Z,0.75
2022-10-15T08:16:47.477Z,1.13
2022-10-15T08:19:17.549Z,1.17
2022-10-15T08:24:17.084Z,0.65
2022-10-15T08:26:47.166Z,0.85
2022-10-15T08:29:13.813Z,1.10
2022-10-15T08:31:40.508Z,0.90
2022-10-15T08:34:11.147Z,2.25
2022-10-15T09:38:30.073Z,1.10
2022-10-15T10:11:53.416Z,2.28
2022-10-15T10:14:31.247Z,0.68
2022-10-15T10:17:13.411Z,1.48
2022-10-15T10:19:40.690Z,1.52
2022-10-15T10:22:13.847Z,0.25
2022-10-15T10:24:40.372Z,1.23
2022-10-15T10:27:29.335Z,1.90
2022-10-15T10:30:02.146Z,0.70
2022-10-15T10:32:31.777Z,2.30
2022-10-15T10:37:27.128Z,1.25
2022-10-15T10:39:57.124Z,1.50
2022-10-15T10:45:18.505Z,0.43
2022-10-15T10:47:45.405Z,0.70
2022-10-15T10:50:32.896Z,0.60
2022-10-15T10:53:17.334Z,2.00
2022-10-15T10:55:45.676Z,1.58
2022-10-15T10:58:23.379Z,1.40
2022-10-15T11:00:55.169Z,2.03
2022-10-15T11:03:34.906Z,2.30
2022-10-15T11:06:09.445Z,2.15
2022-10-15T11:08:56.124Z,3.33
2022-10-15T11:11:37.108Z,0.68
2022-10-15T11:14:26.019Z,3.13
2022-10-15T15:41:43.853Z,2.53
2022-10-15T15:44:12.107Z,2.05
2022-10-15T15:46:38.599Z,1.33
2022-10-15T15:49:05.092Z,4.15
2022-10-15T15:51:32.602Z,1.90
2022-10-15T15:53:59.166Z,2.40
2022-10-15T15:56:28.406Z,3.40
2022-10-15T15:58:54.917Z,3.60
2022-10-15T16:01:21.753Z,3.30
2022-10-15T16:03:48.615Z,4.90
2022-10-15T16:06:15.197Z,11.02
2022-10-15T16:08:41.698Z,6.50
2022-10-15T16:11:08.337Z,3.55
2022-10-15T16:13:35.470Z,4.10
2022-10-15T16:16:02.241Z,2.90
2022-10-15T16:18:28.706Z,2.75
2022-10-15T16:20:55.352Z,4.40
2022-10-15T16:23:21.889Z,4.82
2022-10-15T16:25:48.433Z,4.95
2022-10-15T16:28:15.038Z,3.70
2022-10-15T16:30:41.615Z,5.18
2022-10-15T16:35:39.713Z,4.78
2022-10-15T16:38:06.397Z,3.20
2022-10-15T16:40:34.628Z,6.07
2022-10-15T16:43:01.196Z,8.80
2022-10-15T16:45:27.716Z,8.02
2022-10-15T16:47:54.262Z,13.57
2022-10-15T16:50:20.856Z,10.82
2022-10-15T16:52:47.336Z,13.07
2022-10-15T16:55:14.082Z,26.52
2022-10-15T16:57:41.396Z,24.33
2022-10-15T17:00:08.650Z,16.48
2022-10-15T17:02:36.599Z,15.35
2022-10-15T17:05:03.115Z,15.30
2022-10-15T17:07:29.597Z,15.93
2022-10-15T17:09:56.598Z,14.85
2022-10-15T17:12:23.622Z,15.60
2022-10-15T17:14:51.579Z,15.98
2022-10-15T17:17:18.582Z,21.67
2022-10-15T17:19:45.122Z,13.57
2022-10-15T17:22:11.672Z,13.45
2022-10-15T17:24:38.184Z,12.65
2022-10-15T17:27:05.306Z,11.98
2022-10-15T17:29:33.411Z,8.30
2022-10-15T17:32:00.514Z,8.48
2022-10-15T17:34:27.996Z,10.77
2022-10-15T17:36:56.034Z,12.80
2022-10-15T17:39:22.601Z,12.75
2022-10-15T17:41:50.593Z,12.05
2022-10-15T17:44:17.472Z,14.60
2022-10-15T17:46:44.054Z,12.18
2022-10-15T17:49:11.283Z,10.63
2022-10-15T17:51:38.003Z,13.52
2022-10-15T17:54:04.641Z,12.57
2022-10-15T17:56:33.946Z,10.40
2022-10-15T17:59:02.800Z,7.18
2022-10-15T18:04:22.783Z,7.78
2022-10-15T18:06:49.269Z,7.22
2022-10-15T18:09:15.809Z,17.45
2022-10-15T18:11:42.402Z,29.30
2022-10-15T18:14:08.923Z,27.98
2022-10-15T18:16:35.536Z,25.38
2022-10-15T18:19:02.025Z,21.10
2022-10-15T18:21:28.824Z,20.25
2022-10-15T18:23:58.688Z,24.15
2022-10-15T18:26:25.390Z,15.57
2022-10-15T18:28:53.382Z,17.77
2022-10-15T18:31:21.161Z,16.80
2022-10-15T18:33:51.810Z,12.88
2022-10-15T18:36:23.923Z,19.10
2022-10-15T18:38:50.563Z,16.92
2022-10-15T18:41:18.671Z,12.05
2022-10-15T18:43:53.238Z,15.38
2022-10-15T18:46:20.354Z,18.35
2022-10-15T18:48:47.015Z,17.02
2022-10-15T18:51:13.904Z,16.63
2022-10-15T18:53:41.488Z,13.25
2022-10-15T18:56:09.503Z,14.07
2022-10-15T18:58:38.881Z,14.50
2022-10-15T19:01:24.672Z,17.33
2022-10-15T19:03:52.556Z,13.43
2022-10-15T19:06:20.521Z,15.93
2022-10-15T19:08:48.389Z,14.82
2022-10-15T19:11:16.281Z,16.25
2022-10-15T19:13:42.966Z,19.35
2022-10-15T19:16:09.626Z,18.38
2022-10-15T19:18:37.092Z,17.48
2022-10-15T19:21:04.964Z,17.55
2022-10-15T19:23:31.998Z,20.17
2022-10-15T19:25:58.643Z,17.05
2022-10-15T19:28:26.203Z,20.40
2022-10-15T19:31:01.587Z,21.10
2022-10-15T19:33:29.214Z,26.33
2022-10-15T19:35:56.342Z,26.10
2022-10-15T19:38:24.119Z,31.58
2022-10-15T19:40:51.415Z,37.40
2022-10-15T19:43:19.098Z,33.50
2022-10-15T19:45:46.807Z,43.13
2022-10-15T19:48:15.677Z,46.25
2022-10-15T19:50:44.240Z,77.80
2022-10-15T19:53:14.076Z,117.00
2022-10-15T19:55:40.703Z,118.45
2022-10-15T19:58:07.611Z,124.03
2022-10-15T20:00:34.899Z,121.00
2022-10-15T20:03:01.631Z,99.20
2022-10-15T20:05:28.291Z,84.32
2022-10-15T20:07:54.805Z,81.35
2022-10-15T20:10:25.561Z,58.75
2022-10-15T20:12:52.611Z,50.63
2022-10-15T20:15:19.145Z,41.63
2022-10-15T20:17:46.834Z,68.32
2022-10-15T20:20:13.397Z,51.08
2022-10-15T20:22:39.995Z,57.35
2022-10-15T20:25:06.672Z,55.55
2022-10-15T20:27:33.177Z,40.75
2022-10-15T20:30:00.714Z,39.40
2022-10-15T20:32:34.688Z,37.92
2022-10-15T20:35:02.933Z,36.60
2022-10-15T20:37:29.680Z,37.72
2022-10-15T20:42:23.943Z,33.92
2022-10-15T20:44:51.468Z,35.08
2022-10-15T20:47:18.143Z,42.00
2022-10-15T20:49:49.332Z,42.97
2022-10-15T20:52:16.227Z,52.05
2022-10-15T20:54:42.832Z,55.15
2022-10-15T20:57:10.510Z,52.08
2022-10-15T20:59:36.997Z,44.33
2022-10-15T21:02:03.686Z,29.15
2022-10-15T21:04:30.152Z,30.45
2022-10-15T21:06:57.216Z,36.05
2022-10-15T21:09:23.875Z,25.35
2022-10-15T21:11:50.376Z,25.42
2022-10-15T21:14:16.915Z,26.52
2022-10-15T21:16:43.485Z,38.70
2022-10-15T21:19:09.959Z,32.28
2022-10-15T21:21:36.521Z,28.42
2022-10-15T21:24:04.499Z,19.40
2022-10-15T21:26:31.006Z,19.30
2022-10-15T21:28:59.371Z,19.23
2022-10-15T21:31:27.296Z,15.57
2022-10-15T21:33:55.826Z,12.30
2022-10-15T21:36:27.787Z,13.80
2022-10-15T21:39:00.072Z,15.10
2022-10-15T21:41:28.509Z,10.30
2022-10-15T21:43:55.357Z,7.25
2022-10-15T21:46:22.136Z,6.53
2022-10-15T21:48:48.681Z,7.45
2022-10-15T21:51:19.245Z,5.45
2022-10-15T21:53:46.584Z,7.40
2022-10-15T21:56:13.510Z,8.70
2022-10-15T21:58:41.232Z,5.20
2022-10-15T22:01:15.732Z,6.13
2022-10-15T22:03:44.742Z,8.80
2022-10-15T22:06:12.673Z,6.28
2022-10-15T22:08:40.121Z,10.25
2022-10-15T22:11:13.537Z,10.30
2022-10-15T22:13:43.435Z,11.65
2022-10-15T22:16:11.401Z,12.82
2022-10-15T22:18:38.686Z,14.82
2022-10-15T22:21:23.227Z,12.15
2022-10-15T22:23:53.630Z,10.25
2022-10-15T22:26:23.003Z,12.35
2022-10-15T22:28:51.800Z,10.52
2022-10-15T22:31:18.936Z,5.95
2022-10-15T22:33:46.223Z,6.32
2022-10-15T22:36:20.304Z,4.40
2022-10-15T22:38:49.408Z,7.93
2022-10-15T22:41:16.491Z,7.23
2022-10-15T22:43:43.701Z,7.65
2022-10-15T22:46:10.576Z,5.95
2022-10-15T22:48:39.106Z,5.18
2022-10-15T22:51:07.864Z,8.00
2022-10-15T22:53:34.751Z,6.32
2022-10-15T22:56:03.636Z,6.22
2022-10-15T22:58:31.805Z,6.03
2022-10-15T23:01:19.091Z,7.95
2022-10-15T23:03:48.221Z,5.50
2022-10-15T23:06:15.683Z,4.70
2022-10-15T23:08:43.474Z,10.45
2022-10-15T23:11:21.603Z,7.05
2022-10-15T23:13:53.373Z,4.70
2022-10-15T23:16:22.553Z,3.58
2022-10-15T23:19:00.195Z,5.53
2022-10-15T23:22:03.434Z,7.35
2022-10-15T23:24:29.945Z,4.85
2022-10-15T23:26:56.548Z,7.65
2022-10-15T23:29:24.919Z,4.32
2022-10-15T23:31:52.759Z,5.53
2022-10-15T23:34:22.544Z,5.22
2022-10-15T23:36:50.042Z,8.20
2022-10-15T23:39:23.572Z,5.22
2022-10-15T23:41:50.446Z,6.47
2022-10-15T23:44:17.885Z,8.60
2022-10-15T23:46:44.831Z,7.80
2022-10-15T23:49:11.927Z,4.50
2022-10-15T23:51:38.539Z,4.95
2022-10-15T23:54:13.804Z,6.10
2022-10-15T23:56:40.559Z,6.95
2022-10-15T23:59:08.746Z,5.40
